createdAt,value
2022-11-25T00:00:13.730Z,6.39
2022-11-25T00:02:26.917Z,6.23
2022-11-25T00:04:38.869Z,6.18
2022-11-25T00:06:51.952Z,6.12
2022-11-25T00:09:05.020Z,6.45
2022-11-25T00:11:17.181Z,6.18
2022-11-25T00:13:30.261Z,6.12
2022-11-25T00:15:42.341Z,6.45
2022-11-25T00:17:54.432Z,6.18
2022-11-25T00:20:06.527Z,6.39
2022-11-25T00:22:18.636Z,6.02
2022-11-25T00:24:30.681Z,6.18
2022-11-25T00:26:42.780Z,6.18
2022-11-25T00:28:55.891Z,6.39
2022-11-25T00:31:07.973Z,6.45
2022-11-25T00:33:20.072Z,6.39
2022-11-25T00:35:33.654Z,6.39
2022-11-25T00:37:45.724Z,6.18
2022-11-25T00:39:57.801Z,6.18
2022-11-25T00:42:09.908Z,6.18
2022-11-25T00:44:22.016Z,6.45
2022-11-25T00:46:34.108Z,6.39
2022-11-25T00:48:47.174Z,6.39
2022-11-25T00:51:00.758Z,6.12
2022-11-25T00:53:12.835Z,6.23
2022-11-25T00:55:26.442Z,6.23
2022-11-25T00:57:38.515Z,6.12
2022-11-25T00:59:50.591Z,5.91
2022-11-25T01:02:04.292Z,6.23
2022-11-25T01:04:17.752Z,6.12
2022-11-25T01:06:31.367Z,6.34
2022-11-25T01:08:43.439Z,6.18
2022-11-25T01:10:55.512Z,5.91
2022-11-25T01:13:07.583Z,6.18
2022-11-25T01:15:19.679Z,6.07
2022-11-25T01:17:32.083Z,6.02
2022-11-25T01:19:44.168Z,6.28
2022-11-25T01:21:57.226Z,6.12
2022-11-25T01:24:10.822Z,6.12
2022-11-25T01:26:22.877Z,6.39
2022-11-25T01:28:35.995Z,6.12
2022-11-25T01:30:49.530Z,6.45
2022-11-25T01:33:02.626Z,6.39
2022-11-25T01:35:18.212Z,6.07
2022-11-25T01:37:30.302Z,5.91
2022-11-25T01:39:43.923Z,6.39
2022-11-25T01:41:55.988Z,6.18
2022-11-25T01:44:08.085Z,6.34
2022-11-25T01:46:21.696Z,6.39
2022-11-25T01:48:33.729Z,6.39
2022-11-25T01:50:45.851Z,6.12
2022-11-25T01:53:00.414Z,6.45
2022-11-25T01:55:12.484Z,6.28
2022-11-25T01:57:26.068Z,6.45
2022-11-25T01:59:39.656Z,6.45
2022-11-25T02:01:51.817Z,6.12
2022-11-25T02:04:05.418Z,6.18
2022-11-25T02:06:17.453Z,6.39
2022-11-25T02:08:31.030Z,6.18
2022-11-25T02:10:43.117Z,6.34
2022-11-25T02:12:55.209Z,6.12
2022-11-25T02:15:07.274Z,6.12
2022-11-25T02:17:20.370Z,6.45
2022-11-25T02:19:32.437Z,6.18
2022-11-25T02:21:46.040Z,6.18
2022-11-25T02:23:59.127Z,5.96
2022-11-25T02:26:12.706Z,6.39
2022-11-25T02:28:25.818Z,5.91
2022-11-25T02:30:39.384Z,6.12
2022-11-25T02:32:51.483Z,6.02
2022-11-25T02:35:05.107Z,6.18
2022-11-25T02:37:18.156Z,6.12
2022-11-25T02:39:31.238Z,6.39
2022-11-25T02:41:43.337Z,6.28
2022-11-25T02:43:55.392Z,6.34
2022-11-25T02:46:09.043Z,6.23
2022-11-25T02:48:34.550Z,6.02
2022-11-25T02:50:33.158Z,5.91
2022-11-25T02:52:45.261Z,6.02
2022-11-25T02:54:58.850Z,6.23
2022-11-25T02:57:11.963Z,5.91
2022-11-25T02:59:24.022Z,5.91
2022-11-25T03:01:36.131Z,6.23
2022-11-25T03:03:48.202Z,6.18
2022-11-25T03:06:01.272Z,6.07
2022-11-25T03:08:13.389Z,6.23
2022-11-25T03:10:26.432Z,5.91
2022-11-25T03:12:40.029Z,6.23
2022-11-25T03:14:52.112Z,6.12
2022-11-25T03:17:05.198Z,6.18
2022-11-25T03:19:17.297Z,6.18
2022-11-25T03:21:30.340Z,5.91
2022-11-25T03:23:43.286Z,6.07
2022-11-25T03:25:54.511Z,5.96
2022-11-25T03:28:08.110Z,6.12
2022-11-25T03:30:20.204Z,5.91
2022-11-25T03:32:32.288Z,6.23
2022-11-25T03:34:44.383Z,5.91
2022-11-25T03:36:56.545Z,6.28
2022-11-25T03:39:10.063Z,6.07
2022-11-25T03:41:22.166Z,5.96
2022-11-25T03:43:35.724Z,6.18
2022-11-25T03:45:47.903Z,5.96
2022-11-25T03:48:01.418Z,5.85
2022-11-25T03:50:15.011Z,6.12
2022-11-25T03:52:27.128Z,6.23
2022-11-25T03:54:40.698Z,5.91
2022-11-25T03:56:52.793Z,6.45
2022-11-25T03:59:06.373Z,6.18
2022-11-25T04:01:19.984Z,5.91
2022-11-25T04:03:33.063Z,5.96
2022-11-25T04:05:45.111Z,6.23
2022-11-25T04:07:58.786Z,6.23
2022-11-25T04:10:14.275Z,6.02
2022-11-25T04:12:28.704Z,6.28
2022-11-25T04:14:40.537Z,6.39
2022-11-25T04:16:53.464Z,6.23
2022-11-25T04:19:06.940Z,6.23
2022-11-25T04:21:19.003Z,6.45
2022-11-25T04:23:31.093Z,6.50
2022-11-25T04:25:44.699Z,6.12
2022-11-25T04:27:56.777Z,6.34
2022-11-25T04:30:08.872Z,5.96
2022-11-25T04:32:22.477Z,6.12
2022-11-25T04:34:36.424Z,6.18
2022-11-25T04:36:48.176Z,5.96
2022-11-25T04:39:00.240Z,6.23
2022-11-25T04:41:13.834Z,6.07
2022-11-25T04:43:25.915Z,6.23
2022-11-25T04:46:06.251Z,6.18
2022-11-25T04:47:50.129Z,6.28
2022-11-25T04:50:02.224Z,6.18
2022-11-25T04:52:16.787Z,5.96
2022-11-25T04:54:28.878Z,5.96
2022-11-25T04:56:42.462Z,6.23
2022-11-25T04:58:54.578Z,6.45
2022-11-25T05:01:06.697Z,5.59
2022-11-25T05:03:20.220Z,6.23
2022-11-25T05:05:32.331Z,6.23
2022-11-25T05:07:45.989Z,6.12
2022-11-25T05:09:59.534Z,6.23
2022-11-25T05:12:17.593Z,6.23
2022-11-25T05:14:31.164Z,6.23
2022-11-25T05:16:43.444Z,5.91
2022-11-25T05:18:55.345Z,6.18
2022-11-25T05:21:08.956Z,6.39
2022-11-25T05:23:22.534Z,6.23
2022-11-25T05:25:36.126Z,6.28
2022-11-25T05:27:49.717Z,6.23
2022-11-25T05:30:03.267Z,6.28
2022-11-25T05:32:16.384Z,6.23
2022-11-25T05:34:31.973Z,6.12
2022-11-25T05:36:45.026Z,5.91
2022-11-25T05:39:00.626Z,6.39
2022-11-25T05:41:14.519Z,6.07
2022-11-25T05:43:30.110Z,6.23
2022-11-25T05:45:43.791Z,6.45
2022-11-25T05:47:57.290Z,6.18
2022-11-25T05:50:11.871Z,6.12
2022-11-25T05:52:25.472Z,6.45
2022-11-25T05:54:41.074Z,5.91
2022-11-25T05:56:54.625Z,5.91
2022-11-25T05:59:08.196Z,6.18
2022-11-25T06:01:20.292Z,6.23
2022-11-25T06:03:35.891Z,6.07
2022-11-25T06:05:49.483Z,5.91
2022-11-25T06:08:01.541Z,6.18
2022-11-25T06:10:19.634Z,6.07
2022-11-25T06:12:35.220Z,6.18
2022-11-25T06:14:48.857Z,6.12
2022-11-25T06:17:06.965Z,6.23
2022-11-25T06:19:19.997Z,6.02
2022-11-25T06:21:33.114Z,6.28
2022-11-25T06:23:45.272Z,5.91
2022-11-25T06:25:57.303Z,6.12
2022-11-25T06:28:13.319Z,5.96
2022-11-25T06:30:24.481Z,6.12
2022-11-25T06:32:40.095Z,5.96
2022-11-25T06:34:53.166Z,6.23
2022-11-25T06:37:08.259Z,6.23
2022-11-25T06:39:21.447Z,5.96
2022-11-25T06:41:36.991Z,6.02
2022-11-25T06:43:52.577Z,6.18
2022-11-25T06:46:08.411Z,6.07
2022-11-25T06:48:23.780Z,6.23
2022-11-25T06:50:39.390Z,6.28
2022-11-25T06:52:55.014Z,5.96
2022-11-25T06:55:13.913Z,5.91
2022-11-25T06:57:28.654Z,6.07
2022-11-25T06:59:44.270Z,6.12
2022-11-25T07:01:59.907Z,6.18
2022-11-25T07:04:17.948Z,6.23
2022-11-25T07:06:30.039Z,6.18
2022-11-25T07:08:45.697Z,5.91
2022-11-25T07:10:57.719Z,5.91
2022-11-25T07:13:13.395Z,5.96
2022-11-25T07:15:26.939Z,6.23
2022-11-25T07:17:40.569Z,6.18
2022-11-25T07:19:54.156Z,6.18
2022-11-25T07:22:07.772Z,6.07
2022-11-25T07:24:23.381Z,6.07
2022-11-25T07:26:38.974Z,6.02
2022-11-25T07:28:52.532Z,5.96
2022-11-25T07:33:24.289Z,5.96
2022-11-25T07:35:37.850Z,5.91
2022-11-25T07:37:49.900Z,5.96
2022-11-25T07:40:05.535Z,6.07
2022-11-25T07:42:19.101Z,6.18
2022-11-25T07:44:32.683Z,5.96
2022-11-25T07:46:48.399Z,5.96
2022-11-25T07:49:06.412Z,5.96
2022-11-25T07:51:22.021Z,5.91
2022-11-25T07:53:40.141Z,6.02
2022-11-25T07:55:55.744Z,5.96
2022-11-25T07:58:16.364Z,5.96
2022-11-25T08:00:30.928Z,5.91
2022-11-25T08:02:49.093Z,6.18
2022-11-25T08:05:09.657Z,5.96
2022-11-25T08:07:31.936Z,6.23
2022-11-25T08:09:46.891Z,6.12
2022-11-25T08:10:46.890Z,6.23
2022-11-25T08:13:02.509Z,5.96
2022-11-25T08:15:20.580Z,6.34
2022-11-25T08:17:38.942Z,5.91
2022-11-25T08:18:38.652Z,6.45
2022-11-25T08:20:59.278Z,6.39
2022-11-25T08:23:17.357Z,6.18
2022-11-25T08:25:35.448Z,5.91
2022-11-25T08:27:53.553Z,6.12
2022-11-25T08:30:07.388Z,5.91
2022-11-25T08:32:25.011Z,6.28
2022-11-25T08:34:41.546Z,5.96
2022-11-25T08:36:59.658Z,6.07
2022-11-25T08:39:44.336Z,6.18
2022-11-25T08:40:18.738Z,6.18
2022-11-25T08:42:34.305Z,6.18
2022-11-25T08:44:54.896Z,5.96
2022-11-25T08:47:12.993Z,6.23
2022-11-25T08:49:33.776Z,6.02
2022-11-25T08:51:49.253Z,5.96
2022-11-25T08:54:09.784Z,6.12
2022-11-25T08:56:27.888Z,6.18
2022-11-25T08:58:45.969Z,6.02
2022-11-25T09:01:04.089Z,5.91
2022-11-25T09:03:24.809Z,6.02
2022-11-25T09:05:38.258Z,6.23
2022-11-25T09:07:59.378Z,6.12
2022-11-25T09:10:19.928Z,6.18
2022-11-25T09:12:38.031Z,5.91
2022-11-25T09:14:58.645Z,6.23
2022-11-25T09:17:16.256Z,5.96
2022-11-25T09:19:34.562Z,5.96
2022-11-25T09:21:48.028Z,6.23
2022-11-25T09:24:06.110Z,6.18
2022-11-25T09:27:45.615Z,6.18
2022-11-25T09:30:02.175Z,6.07
2022-11-25T09:32:20.293Z,5.96
2022-11-25T09:34:40.903Z,6.12
2022-11-25T09:37:01.552Z,6.07
2022-11-25T09:39:18.100Z,6.02
2022-11-25T09:41:36.249Z,6.12
2022-11-25T09:43:56.851Z,5.96
2022-11-25T09:46:17.455Z,6.23
2022-11-25T09:48:35.784Z,6.02
2022-11-25T09:50:56.120Z,6.02
2022-11-25T09:53:16.713Z,6.02
2022-11-25T09:55:37.354Z,6.28
2022-11-25T09:57:59.806Z,5.96
2022-11-25T10:00:16.518Z,5.96
2022-11-25T10:02:34.736Z,6.18
2022-11-25T10:04:51.185Z,6.12
2022-11-25T10:07:09.284Z,6.12
2022-11-25T10:09:29.875Z,6.23
2022-11-25T10:11:47.987Z,5.91
2022-11-25T10:14:08.921Z,5.91
2022-11-25T10:16:24.577Z,6.02
2022-11-25T10:18:46.192Z,5.91
2022-11-25T10:21:04.195Z,6.18
2022-11-25T10:23:28.106Z,5.96
2022-11-25T10:25:42.912Z,6.18
2022-11-25T10:27:59.492Z,6.23
2022-11-25T10:30:17.661Z,6.23
2022-11-25T10:32:34.173Z,6.23
2022-11-25T10:34:54.742Z,5.91
2022-11-25T10:37:12.869Z,6.23
2022-11-25T10:39:30.939Z,6.18
2022-11-25T10:41:49.019Z,5.96
2022-11-25T10:44:07.936Z,5.96
2022-11-25T10:46:43.442Z,6.18
2022-11-25T10:48:48.358Z,6.18
2022-11-25T10:51:06.418Z,5.91
2022-11-25T10:53:26.985Z,6.23
2022-11-25T10:55:41.574Z,5.96
2022-11-25T10:57:59.680Z,6.12
2022-11-25T11:00:17.787Z,5.91
2022-11-25T11:02:34.425Z,6.12
2022-11-25T11:04:52.452Z,5.96
2022-11-25T11:07:10.782Z,6.18
2022-11-25T11:09:28.634Z,5.96
2022-11-25T11:11:46.824Z,6.23
2022-11-25T11:14:02.359Z,5.91
2022-11-25T11:16:20.538Z,6.12
2022-11-25T11:18:38.507Z,6.28
2022-11-25T11:20:56.641Z,6.12
2022-11-25T11:23:14.780Z,6.18
2022-11-25T11:25:32.852Z,5.91
2022-11-25T11:27:49.419Z,6.07
2022-11-25T11:30:07.519Z,6.18
2022-11-25T11:32:23.124Z,6.23
2022-11-25T11:34:50.718Z,5.91
2022-11-25T11:36:59.478Z,6.23
2022-11-25T11:39:17.534Z,5.91
2022-11-25T11:41:34.310Z,5.96
2022-11-25T11:43:53.303Z,6.28
2022-11-25T11:46:11.570Z,6.23
2022-11-25T11:48:29.723Z,6.23
2022-11-25T11:50:51.695Z,6.02
2022-11-25T11:53:15.458Z,5.96
2022-11-25T11:57:16.949Z,6.28
2022-11-25T12:01:55.441Z,5.91
2022-11-25T12:09:03.089Z,6.23
2022-11-25T12:11:23.057Z,5.91
2022-11-25T12:13:41.166Z,6.18
2022-11-25T12:16:02.653Z,5.96
2022-11-25T12:18:16.669Z,5.96
2022-11-25T12:20:34.748Z,6.23
2022-11-25T12:22:51.341Z,6.18
2022-11-25T12:25:11.941Z,5.91
2022-11-25T12:27:30.081Z,6.18
2022-11-25T12:29:48.178Z,5.96
2022-11-25T12:32:06.289Z,6.18
2022-11-25T12:34:24.311Z,5.96
2022-11-25T12:36:42.402Z,5.91
2022-11-25T12:39:03.030Z,6.23
2022-11-25T12:41:21.107Z,6.02
2022-11-25T12:43:39.186Z,5.96
2022-11-25T12:45:57.325Z,6.12
2022-11-25T12:48:20.004Z,6.23
2022-11-25T12:50:31.616Z,6.23
2022-11-25T12:52:46.293Z,5.96
2022-11-25T12:55:04.339Z,6.18
2022-11-25T12:57:20.911Z,5.96
2022-11-25T12:59:39.042Z,6.02
2022-11-25T13:02:06.232Z,5.91
2022-11-25T13:04:21.899Z,6.18
2022-11-25T13:06:46.936Z,6.07
2022-11-25T13:09:03.537Z,6.02
2022-11-25T13:11:21.901Z,6.23
2022-11-25T13:13:38.992Z,5.96
2022-11-25T13:15:57.298Z,6.28
2022-11-25T13:18:14.772Z,6.12
2022-11-25T13:20:29.950Z,5.96
2022-11-25T13:22:50.413Z,6.23
2022-11-25T13:25:08.478Z,6.07
2022-11-25T13:27:29.090Z,6.18
2022-11-25T13:29:45.652Z,5.85
2022-11-25T13:32:06.544Z,6.02
2022-11-25T13:35:46.569Z,5.91
2022-11-25T13:38:04.751Z,6.12
2022-11-25T13:40:27.564Z,6.18
2022-11-25T13:44:04.865Z,6.23
2022-11-25T13:47:33.016Z,6.23
2022-11-25T13:50:22.260Z,5.91
2022-11-25T13:53:56.964Z,6.23
2022-11-25T13:56:19.077Z,5.91
2022-11-25T13:58:42.540Z,5.96
2022-11-25T14:03:06.919Z,6.12
2022-11-25T14:06:45.276Z,5.96
2022-11-25T14:12:59.017Z,6.07
2022-11-25T14:16:33.564Z,6.07
2022-11-25T14:29:45.251Z,5.96
2022-11-25T14:31:25.650Z,6.07
2022-11-25T14:33:43.526Z,5.85
2022-11-25T14:36:00.707Z,6.34
2022-11-25T14:38:18.896Z,5.91
2022-11-25T14:40:35.645Z,6.23
2022-11-25T14:42:52.295Z,5.91
2022-11-25T14:45:07.543Z,5.75
2022-11-25T14:47:24.134Z,6.12
2022-11-25T14:49:49.159Z,5.96
2022-11-25T14:57:17.505Z,5.91
2022-11-25T15:06:16.793Z,5.91
2022-11-25T15:09:55.841Z,6.07
2022-11-25T15:17:46.389Z,5.91
2022-11-25T15:24:14.159Z,6.23
2022-11-25T15:59:21.551Z,6.18
2022-11-25T16:05:40.542Z,6.02
2022-11-25T16:07:58.682Z,6.18
2022-11-25T16:10:19.251Z,6.07
2022-11-25T16:12:39.881Z,6.23
2022-11-25T16:14:57.943Z,5.96
2022-11-25T16:17:16.059Z,6.23
2022-11-25T16:19:38.090Z,6.02
2022-11-25T16:21:52.251Z,5.91
2022-11-25T16:24:10.364Z,6.02
2022-11-25T16:26:27.866Z,6.07
2022-11-25T16:28:45.063Z,6.23
2022-11-25T16:30:59.445Z,5.96
2022-11-25T16:33:14.798Z,6.02
2022-11-25T16:35:35.357Z,5.96
2022-11-25T16:37:56.042Z,5.80
2022-11-25T16:40:14.031Z,6.07
2022-11-25T16:42:30.626Z,6.23
2022-11-25T16:44:47.231Z,6.28
2022-11-25T16:47:05.308Z,5.85
2022-11-25T16:49:21.866Z,6.50
2022-11-25T16:51:38.510Z,6.50
2022-11-25T16:53:59.057Z,6.07
2022-11-25T16:56:13.675Z,5.80
2022-11-25T16:58:28.357Z,5.96
2022-11-25T17:00:46.333Z,6.23
2022-11-25T17:03:26.887Z,6.23
2022-11-25T17:05:47.504Z,6.12
2022-11-25T17:08:05.656Z,6.39
2022-11-25T17:10:23.669Z,5.96
2022-11-25T17:12:41.788Z,5.96
2022-11-25T17:15:00.281Z,6.18
2022-11-25T17:17:18.652Z,5.91
2022-11-25T17:19:33.595Z,6.12
2022-11-25T17:21:49.115Z,6.18
2022-11-25T17:24:07.260Z,6.28
2022-11-25T17:26:26.135Z,5.91
2022-11-25T17:28:43.364Z,6.18
2022-11-25T17:31:01.464Z,6.02
2022-11-25T17:33:19.556Z,6.34
2022-11-25T17:35:37.690Z,5.96
2022-11-25T17:37:52.250Z,6.18
2022-11-25T17:40:08.842Z,6.39
2022-11-25T17:42:27.361Z,6.45
2022-11-25T17:44:42.547Z,6.23
2022-11-25T17:46:57.107Z,5.96
2022-11-25T17:49:15.496Z,5.80
2022-11-25T17:51:33.547Z,6.23
2022-11-25T17:53:51.722Z,6.23
2022-11-25T17:56:09.766Z,5.85
2022-11-25T17:58:27.866Z,6.55
2022-11-25T18:00:43.415Z,6.34
2022-11-25T18:02:59.149Z,6.12
2022-11-25T18:05:13.620Z,6.18
2022-11-25T18:07:32.608Z,6.18
2022-11-25T18:09:49.871Z,6.28
2022-11-25T18:12:07.923Z,6.18
2022-11-25T18:14:26.027Z,6.39
2022-11-25T18:16:44.148Z,6.18
2022-11-25T18:19:02.224Z,6.12
2022-11-25T18:21:25.270Z,6.12
2022-11-25T18:23:40.976Z,6.34
2022-11-25T18:26:01.959Z,6.39
2022-11-25T18:28:17.090Z,6.12
2022-11-25T18:30:35.242Z,6.12
2022-11-25T18:32:53.372Z,6.39
2022-11-25T18:35:09.949Z,6.18
2022-11-25T18:38:05.727Z,6.45
2022-11-25T18:39:48.552Z,6.39
2022-11-25T18:43:55.201Z,6.45
2022-11-25T18:49:45.281Z,6.34
2022-11-25T19:12:17.213Z,6.12
2022-11-25T19:26:32.992Z,6.12
2022-11-25T19:31:47.256Z,6.28
2022-11-25T19:33:55.901Z,6.39
2022-11-25T19:36:16.072Z,6.34
2022-11-25T19:38:59.590Z,6.39
2022-11-25T19:40:48.735Z,6.07
2022-11-25T19:43:39.695Z,6.61
2022-11-25T19:47:13.339Z,6.34
2022-11-25T19:47:39.560Z,6.50
2022-11-25T19:49:10.517Z,6.28
2022-11-25T19:50:56.932Z,6.34
2022-11-25T19:53:13.183Z,6.34
2022-11-25T19:55:27.742Z,6.61
2022-11-25T19:57:45.801Z,6.34
2022-11-25T20:00:03.945Z,6.34
2022-11-25T20:02:19.563Z,6.45
2022-11-25T20:04:35.420Z,6.39
2022-11-25T20:06:50.692Z,6.34
2022-11-25T20:09:08.089Z,6.34
2022-11-25T20:11:24.386Z,6.34
2022-11-25T20:13:39.951Z,6.34
2022-11-25T20:15:55.573Z,6.50
2022-11-25T20:18:17.776Z,6.82
2022-11-25T20:20:29.250Z,6.55
2022-11-25T20:22:47.377Z,6.88
2022-11-25T20:25:02.897Z,6.82
2022-11-25T20:27:18.565Z,6.71
2022-11-25T20:29:32.090Z,7.20
2022-11-25T20:31:47.731Z,7.20
2022-11-25T20:34:03.280Z,7.14
2022-11-25T20:36:18.875Z,7.25
2022-11-25T20:38:32.490Z,7.36
2022-11-25T20:40:48.080Z,7.20
2022-11-25T20:43:03.672Z,7.14
2022-11-25T20:45:19.249Z,7.09
2022-11-25T20:47:33.904Z,7.14
2022-11-25T20:49:46.966Z,7.30
2022-11-25T20:52:02.528Z,7.57
2022-11-25T20:54:18.150Z,7.30
2022-11-25T20:56:33.703Z,7.30
2022-11-25T20:58:50.297Z,7.57
2022-11-25T21:01:08.428Z,7.57
2022-11-25T21:03:26.458Z,7.68
2022-11-25T21:05:44.611Z,7.52
2022-11-25T21:08:02.673Z,7.52
2022-11-25T21:10:20.733Z,7.79
2022-11-25T21:12:38.797Z,7.73
2022-11-25T21:14:59.392Z,7.52
2022-11-25T21:17:17.473Z,7.63
2022-11-25T21:19:33.895Z,7.73
2022-11-25T21:21:46.150Z,7.63
2022-11-25T21:24:07.303Z,7.73
2022-11-25T21:26:22.327Z,8.00
2022-11-25T21:28:37.933Z,7.73
2022-11-25T21:30:56.022Z,7.68
2022-11-25T21:33:14.106Z,7.73
2022-11-25T21:35:32.202Z,7.90
2022-11-25T21:37:50.294Z,7.95
2022-11-25T21:40:05.710Z,8.16
2022-11-25T21:42:22.976Z,8.16
2022-11-25T21:44:38.842Z,8.16
2022-11-25T21:46:53.149Z,8.16
2022-11-25T21:49:08.763Z,8.22
2022-11-25T21:51:23.181Z,8.06
2022-11-25T21:53:37.920Z,8.38
2022-11-25T21:55:53.527Z,8.06
2022-11-25T21:58:11.639Z,8.11
2022-11-25T22:00:27.230Z,8.33
2022-11-25T22:02:42.939Z,8.38
2022-11-25T22:04:56.425Z,8.43
2022-11-25T22:07:14.590Z,8.06
2022-11-25T22:09:30.138Z,8.16
2022-11-25T22:11:45.722Z,8.49
2022-11-25T22:14:01.296Z,8.33
2022-11-25T22:16:20.267Z,8.33
2022-11-25T22:18:34.964Z,8.49
2022-11-25T22:20:55.597Z,8.22
2022-11-25T22:23:13.644Z,8.54
2022-11-25T22:25:29.239Z,8.11
2022-11-25T22:27:44.824Z,8.43
2022-11-25T22:30:00.931Z,8.54
2022-11-25T22:32:16.881Z,8.22
2022-11-25T22:34:34.104Z,8.27
2022-11-25T22:36:48.645Z,8.27
2022-11-25T22:39:04.240Z,8.22
2022-11-25T22:41:19.837Z,8.27
2022-11-25T22:43:33.462Z,8.38
2022-11-25T22:45:48.054Z,8.38
2022-11-25T22:48:06.141Z,8.65
2022-11-25T22:50:26.702Z,8.49
2022-11-25T22:52:44.758Z,8.54
2022-11-25T22:54:58.374Z,8.22
2022-11-25T22:57:13.929Z,8.43
2022-11-25T22:59:32.012Z,8.43
2022-11-25T23:01:52.690Z,8.33
2022-11-25T23:04:06.248Z,8.33
2022-11-25T23:06:22.830Z,8.06
2022-11-25T23:08:38.397Z,8.27
2022-11-25T23:10:56.501Z,8.06
2022-11-25T23:13:14.582Z,8.59
2022-11-25T23:15:30.162Z,8.06
2022-11-25T23:17:48.286Z,8.27
2022-11-25T23:20:06.412Z,8.11
2022-11-25T23:22:21.961Z,8.33
2022-11-25T23:24:39.243Z,8.54
2022-11-25T23:26:53.141Z,8.22
2022-11-25T23:29:13.743Z,8.06
2022-11-25T23:31:32.563Z,8.16
2022-11-25T23:33:49.982Z,8.33
2022-11-25T23:36:08.681Z,8.33
2022-11-25T23:38:20.141Z,8.27
2022-11-25T23:40:38.217Z,8.22
2022-11-25T23:42:56.321Z,8.27
2022-11-25T23:45:15.841Z,8.11
2022-11-25T23:47:29.994Z,8.06
2022-11-25T23:49:48.074Z,8.22
2022-11-25T23:52:08.079Z,8.06
2022-11-25T23:54:22.723Z,8.43
2022-11-25T23:56:40.813Z,8.33
2022-11-25T23:58:56.745Z,8.00
